createdAt,value
2022-11-26T00:01:22.027Z,18.63
2022-11-26T00:05:24.096Z,26.33
2022-11-26T00:09:25.184Z,23.53
2022-11-26T00:13:29.578Z,20.27
2022-11-26T00:17:30.737Z,22.13
2022-11-26T00:21:34.482Z,18.33
2022-11-26T00:25:42.365Z,20.73
2022-11-26T00:29:43.624Z,22.07
2022-11-26T00:33:45.282Z,21.20
2022-11-26T00:37:55.886Z,30.10
2022-11-26T00:41:56.929Z,27.83
2022-11-26T00:45:57.963Z,23.80
2022-11-26T00:49:59.101Z,18.63
2022-11-26T00:54:02.030Z,32.97
2022-11-26T00:58:03.878Z,29.87
2022-11-26T01:02:05.128Z,28.17
2022-11-26T01:06:10.081Z,29.17
2022-11-26T01:10:16.986Z,24.67
2022-11-26T01:14:19.985Z,34.17
2022-11-26T01:18:22.180Z,22.17
2022-11-26T01:22:23.604Z,34.37
2022-11-26T01:26:27.126Z,33.47
2022-11-26T01:30:31.493Z,32.57
2022-11-26T01:34:32.670Z,28.77
2022-11-26T01:38:34.036Z,28.90
2022-11-26T01:42:39.069Z,31.53
2022-11-26T01:46:40.784Z,25.70
2022-11-26T01:50:54.963Z,35.50
2022-11-26T01:54:56.177Z,31.97
2022-11-26T01:59:03.881Z,31.43
2022-11-26T02:03:05.968Z,28.60
2022-11-26T02:07:07.310Z,25.13
2022-11-26T02:11:14.881Z,23.10
2022-11-26T02:15:16.357Z,25.63
2022-11-26T02:19:36.082Z,29.23
2022-11-26T02:24:02.787Z,32.67
2022-11-26T02:28:30.035Z,31.93
2022-11-26T02:32:43.395Z,32.73
2022-11-26T02:36:48.491Z,27.30
2022-11-26T02:40:51.353Z,32.10
2022-11-26T02:44:55.370Z,31.90
2022-11-26T02:48:56.630Z,26.23
2022-11-26T02:52:58.870Z,39.03
2022-11-26T02:57:03.681Z,37.03
2022-11-26T03:01:08.907Z,29.97
2022-11-26T03:05:12.157Z,34.10
2022-11-26T03:09:15.857Z,36.17
2022-11-26T03:13:17.408Z,30.40
2022-11-26T03:17:18.962Z,32.00
2022-11-26T03:21:20.262Z,30.87
2022-11-26T03:25:21.444Z,43.00
2022-11-26T03:29:22.654Z,32.33
2022-11-26T03:33:23.686Z,35.43
2022-11-26T03:37:24.940Z,26.23
2022-11-26T03:41:26.082Z,36.50
2022-11-26T03:45:27.370Z,28.40
2022-11-26T03:49:28.581Z,25.83
2022-11-26T03:53:29.822Z,40.47
2022-11-26T03:57:30.804Z,30.97
2022-11-26T04:01:32.125Z,36.70
2022-11-26T04:05:33.237Z,38.47
2022-11-26T04:09:34.245Z,31.00
2022-11-26T04:13:35.432Z,33.97
2022-11-26T04:17:36.423Z,27.63
2022-11-26T04:21:37.782Z,39.10
2022-11-26T04:25:38.766Z,35.77
2022-11-26T04:29:40.179Z,32.10
2022-11-26T04:33:42.228Z,24.63
2022-11-26T04:37:43.336Z,23.47
2022-11-26T04:41:44.560Z,22.27
2022-11-26T04:45:45.830Z,28.27
2022-11-26T04:49:46.965Z,29.90
2022-11-26T04:53:48.128Z,31.93
2022-11-26T04:57:49.248Z,34.20
2022-11-26T05:01:50.401Z,23.07
2022-11-26T05:05:51.536Z,22.93
2022-11-26T05:09:54.422Z,28.70
2022-11-26T05:13:55.472Z,37.67
2022-11-26T05:17:56.494Z,24.57
2022-11-26T05:21:57.689Z,27.33
2022-11-26T05:25:58.978Z,27.40
2022-11-26T05:30:00.408Z,25.37
2022-11-26T05:34:01.499Z,26.50
2022-11-26T05:38:02.721Z,26.60
2022-11-26T05:42:08.960Z,43.37
2022-11-26T05:46:08.362Z,24.40
2022-11-26T05:50:10.313Z,30.33
2022-11-26T05:54:13.960Z,26.07
2022-11-26T05:58:15.077Z,41.33
2022-11-26T06:02:16.447Z,37.40
2022-11-26T06:06:17.635Z,61.10
2022-11-26T06:10:19.061Z,50.07
2022-11-26T06:14:20.526Z,50.13
2022-11-26T06:18:21.567Z,48.20
2022-11-26T06:22:22.760Z,54.90
2022-11-26T06:26:23.974Z,21.53
2022-11-26T06:30:25.203Z,23.50
2022-11-26T06:34:26.423Z,20.27
2022-11-26T06:38:28.141Z,20.30
2022-11-26T06:42:29.295Z,22.33
2022-11-26T06:46:30.494Z,32.47
2022-11-26T06:50:31.539Z,38.97
2022-11-26T06:54:32.878Z,39.90
2022-11-26T06:58:34.119Z,45.47
2022-11-26T07:02:36.442Z,48.90
2022-11-26T07:06:38.123Z,46.03
2022-11-26T07:10:39.359Z,33.23
2022-11-26T07:14:40.658Z,40.93
2022-11-26T07:18:42.186Z,27.10
2022-11-26T07:22:43.384Z,37.00
2022-11-26T07:26:44.384Z,24.10
2022-11-26T07:30:45.436Z,29.50
2022-11-26T07:34:46.534Z,53.67
2022-11-26T07:38:48.131Z,50.03
2022-11-26T07:42:53.055Z,43.47
2022-11-26T07:46:52.296Z,44.03
2022-11-26T07:50:53.448Z,42.77
2022-11-26T07:54:54.426Z,36.03
2022-11-26T07:58:55.573Z,45.23
2022-11-26T08:02:56.787Z,32.97
2022-11-26T08:06:57.767Z,35.70
2022-11-26T08:10:58.877Z,31.33
2022-11-26T08:15:00.011Z,31.93
2022-11-26T08:19:07.095Z,44.60
2022-11-26T08:23:08.290Z,38.07
2022-11-26T08:27:09.766Z,45.77
2022-11-26T08:31:12.248Z,41.33
2022-11-26T08:35:13.747Z,40.10
2022-11-26T08:39:16.979Z,39.33
2022-11-26T08:43:18.023Z,30.70
2022-11-26T08:47:19.247Z,52.40
2022-11-26T08:51:20.436Z,47.30
2022-11-26T08:55:24.040Z,34.20
2022-11-26T08:59:24.760Z,35.50
2022-11-26T09:03:26.099Z,31.00
2022-11-26T09:07:27.905Z,33.63
2022-11-26T09:11:29.177Z,31.93
2022-11-26T09:15:30.487Z,33.47
2022-11-26T09:19:31.797Z,28.30
2022-11-26T09:23:33.204Z,23.93
2022-11-26T09:27:34.274Z,32.37
2022-11-26T09:31:35.454Z,36.27
2022-11-26T09:35:36.691Z,31.23
2022-11-26T09:39:38.314Z,28.03
2022-11-26T09:44:01.100Z,21.83
2022-11-26T09:48:03.556Z,21.03
2022-11-26T09:52:07.369Z,12.27
2022-11-26T09:56:19.007Z,14.23
2022-11-26T10:00:23.897Z,21.13
2022-11-26T10:04:28.741Z,16.37
2022-11-26T10:08:39.861Z,16.37
2022-11-26T10:13:19.029Z,12.20
2022-11-26T10:17:29.597Z,9.50
2022-11-26T10:21:58.762Z,17.73
2022-11-26T10:25:49.569Z,12.43
2022-11-26T10:30:03.853Z,12.50
2022-11-26T10:34:17.439Z,11.77
2022-11-26T10:38:18.736Z,21.43
2022-11-26T10:42:22.063Z,11.23
2022-11-26T10:46:35.612Z,13.70
2022-11-26T10:50:47.553Z,18.23
2022-11-26T10:54:41.412Z,11.53
2022-11-26T10:58:44.786Z,12.33
2022-11-26T11:02:48.229Z,10.53
2022-11-26T11:06:49.835Z,20.37
2022-11-26T11:10:56.568Z,14.57
2022-11-26T11:15:19.752Z,11.53
2022-11-26T11:19:26.553Z,10.00
2022-11-26T11:24:00.263Z,10.80
2022-11-26T11:27:43.402Z,15.37
2022-11-26T11:31:45.726Z,10.43
2022-11-26T11:35:59.222Z,13.50
2022-11-26T11:40:06.517Z,13.57
2022-11-26T11:44:26.369Z,13.73
2022-11-26T11:48:31.491Z,18.27
2022-11-26T11:53:01.783Z,14.63
2022-11-26T11:57:23.766Z,18.03
2022-11-26T12:01:37.887Z,15.67
2022-11-26T12:06:01.027Z,17.50
2022-11-26T12:10:13.038Z,21.30
2022-11-26T12:14:37.798Z,23.07
2022-11-26T12:18:57.881Z,24.63
2022-11-26T12:23:09.027Z,28.47
2022-11-26T12:27:18.540Z,22.10
2022-11-26T12:31:32.548Z,21.63
2022-11-26T12:35:43.561Z,21.20
2022-11-26T12:39:57.454Z,24.60
2022-11-26T12:44:19.494Z,24.93
2022-11-26T12:48:27.520Z,24.73
2022-11-26T12:52:32.430Z,22.30
2022-11-26T12:56:37.540Z,24.20
2022-11-26T13:00:39.138Z,22.37
2022-11-26T13:04:40.661Z,22.27
2022-11-26T13:09:05.405Z,30.37
2022-11-26T13:13:19.523Z,25.53
2022-11-26T13:17:24.466Z,23.00
2022-11-26T13:21:44.663Z,16.27
2022-11-26T13:25:52.610Z,15.17
2022-11-26T13:30:03.648Z,12.87
2022-11-26T13:34:08.539Z,15.07
2022-11-26T13:38:31.992Z,18.33
2022-11-26T13:42:43.130Z,21.67
2022-11-26T13:47:03.421Z,16.63
2022-11-26T13:51:08.386Z,17.80
2022-11-26T13:55:16.685Z,21.20
2022-11-26T13:59:28.066Z,16.70
2022-11-26T14:03:46.605Z,23.13
2022-11-26T14:07:47.821Z,18.83
2022-11-26T14:11:53.550Z,21.77
2022-11-26T14:16:01.788Z,20.00
2022-11-26T14:20:04.937Z,15.90
2022-11-26T14:24:06.141Z,20.63
2022-11-26T14:28:09.437Z,21.43
2022-11-26T14:32:21.458Z,23.33
2022-11-26T14:36:25.880Z,20.13
2022-11-26T14:40:30.327Z,24.97
2022-11-26T14:44:32.268Z,19.07
2022-11-26T14:48:36.831Z,20.70
2022-11-26T14:52:40.715Z,20.23
2022-11-26T14:56:46.294Z,24.37
2022-11-26T15:01:03.811Z,21.13
2022-11-26T15:05:25.813Z,22.73
2022-11-26T15:09:30.455Z,20.70
2022-11-26T15:13:41.200Z,24.07
2022-11-26T15:17:49.265Z,27.43
2022-11-26T15:21:51.550Z,28.93
2022-11-26T15:25:53.930Z,34.07
2022-11-26T15:29:55.065Z,35.83
2022-11-26T15:33:56.477Z,33.63
2022-11-26T15:37:57.992Z,31.83
2022-11-26T15:42:02.936Z,30.85
2022-11-26T15:46:07.954Z,35.33
2022-11-26T15:50:13.212Z,32.53
2022-11-26T15:54:18.297Z,28.43
2022-11-26T15:58:23.192Z,26.10
2022-11-26T16:02:26.625Z,29.27
2022-11-26T16:06:33.965Z,36.27
2022-11-26T16:10:35.034Z,37.97
2022-11-26T16:14:38.659Z,38.70
2022-11-26T16:18:49.954Z,45.57
2022-11-26T16:22:54.537Z,45.93
2022-11-26T16:27:08.924Z,40.33
2022-11-26T16:31:10.535Z,28.33
2022-11-26T16:35:37.493Z,28.47
2022-11-26T16:39:16.191Z,32.40
2022-11-26T16:43:17.868Z,34.83
2022-11-26T16:47:28.932Z,28.90
2022-11-26T16:51:30.215Z,29.87
2022-11-26T16:55:31.443Z,30.27
2022-11-26T16:59:32.595Z,30.10
2022-11-26T17:03:34.741Z,30.47
2022-11-26T17:07:42.884Z,37.10
2022-11-26T17:11:44.367Z,37.10
2022-11-26T17:15:47.264Z,38.53
2022-11-26T17:19:48.604Z,35.93
2022-11-26T17:23:49.790Z,42.90
2022-11-26T17:27:51.095Z,33.93
2022-11-26T17:31:52.129Z,32.42
2022-11-26T17:35:53.284Z,36.73
2022-11-26T17:39:55.785Z,25.17
2022-11-26T17:43:56.811Z,31.57
2022-11-26T17:47:57.866Z,28.30
2022-11-26T17:51:58.963Z,28.90
2022-11-26T17:56:00.080Z,22.17
2022-11-26T18:00:01.196Z,29.00
2022-11-26T18:04:02.263Z,27.67
2022-11-26T18:08:03.848Z,19.40
2022-11-26T18:12:08.265Z,21.97
2022-11-26T18:16:09.402Z,22.93
2022-11-26T18:20:10.765Z,24.07
2022-11-26T18:24:13.133Z,23.97
2022-11-26T18:28:18.149Z,22.40
2022-11-26T18:32:19.438Z,22.03
2022-11-26T18:36:20.696Z,23.93
2022-11-26T18:40:21.753Z,23.23
2022-11-26T18:44:23.286Z,23.37
2022-11-26T18:48:24.404Z,26.33
2022-11-26T18:52:25.659Z,28.80
2022-11-26T18:56:27.052Z,25.70
2022-11-26T19:00:28.437Z,19.23
2022-11-26T19:04:29.605Z,19.30
2022-11-26T19:08:32.337Z,16.80
2022-11-26T19:12:33.926Z,26.73
2022-11-26T19:16:35.186Z,13.90
2022-11-26T19:20:36.761Z,15.63
2022-11-26T19:24:38.035Z,18.00
2022-11-26T19:28:39.378Z,19.07
2022-11-26T19:32:40.744Z,16.40
2022-11-26T19:36:41.879Z,14.70
2022-11-26T19:40:43.042Z,21.97
2022-11-26T19:44:44.364Z,21.27
2022-11-26T19:48:47.596Z,17.90
2022-11-26T19:52:48.756Z,19.50
2022-11-26T19:56:50.027Z,17.27
2022-11-26T20:00:51.603Z,21.90
2022-11-26T20:04:52.714Z,18.43
2022-11-26T20:08:55.000Z,15.67
2022-11-26T20:12:56.234Z,22.77
2022-11-26T20:17:00.948Z,17.97
2022-11-26T20:21:03.250Z,17.83
2022-11-26T20:25:05.268Z,21.83
2022-11-26T20:29:09.299Z,19.03
2022-11-26T20:33:10.729Z,20.10
2022-11-26T20:37:11.998Z,20.53
2022-11-26T20:41:16.859Z,18.27
2022-11-26T20:45:18.016Z,24.47
2022-11-26T20:49:19.345Z,20.80
2022-11-26T20:53:20.480Z,24.17
2022-11-26T20:57:23.229Z,25.40
2022-11-26T21:01:28.333Z,24.97
2022-11-26T21:05:30.125Z,25.23
2022-11-26T21:09:31.450Z,24.87
2022-11-26T21:13:33.883Z,27.03
2022-11-26T21:17:35.819Z,33.90
2022-11-26T21:21:39.262Z,24.27
2022-11-26T21:25:42.348Z,25.87
2022-11-26T21:29:45.522Z,31.50
2022-11-26T21:33:49.573Z,27.97
2022-11-26T21:37:51.132Z,30.90
2022-11-26T21:41:52.567Z,27.80
2022-11-26T21:45:54.062Z,23.93
2022-11-26T21:49:55.391Z,28.10
2022-11-26T21:53:57.808Z,27.33
2022-11-26T21:57:59.150Z,34.33
2022-11-26T22:02:00.527Z,32.30
2022-11-26T22:06:01.785Z,31.73
2022-11-26T22:10:03.697Z,32.23
2022-11-26T22:14:05.927Z,28.33
2022-11-26T22:18:07.197Z,28.67
2022-11-26T22:22:08.431Z,34.77
2022-11-26T22:26:09.797Z,36.73
2022-11-26T22:30:12.583Z,35.73
2022-11-26T22:34:16.918Z,34.13
2022-11-26T22:38:18.072Z,36.37
2022-11-26T22:42:19.251Z,39.77
2022-11-26T22:46:22.770Z,31.40
2022-11-26T22:50:24.322Z,40.27
2022-11-26T22:54:25.579Z,37.97
2022-11-26T22:58:27.410Z,31.53
2022-11-26T23:02:28.696Z,32.70
2022-11-26T23:06:32.317Z,28.70
2022-11-26T23:10:34.038Z,29.60
2022-11-26T23:14:35.333Z,33.67
2022-11-26T23:18:37.658Z,32.90
2022-11-26T23:22:38.692Z,28.50
2022-11-26T23:26:44.157Z,32.10
2022-11-26T23:30:45.264Z,27.27
2022-11-26T23:34:47.563Z,23.33
2022-11-26T23:38:48.739Z,24.93
2022-11-26T23:42:49.903Z,24.13
2022-11-26T23:46:51.132Z,26.87
2022-11-26T23:50:52.189Z,24.87
2022-11-26T23:54:53.530Z,25.73
2022-11-26T23:58:57.196Z,27.03
